sensor_id;sensor_type;location;lat;lon;timestamp;temperature;humidity
45685;DHT22;46836;48.388;16.210;2023-10-19T00:00:41;9.30;99.90
45685;DHT22;46836;48.388;16.210;2023-10-19T00:03:12;9.30;99.90
45685;DHT22;46836;48.388;16.210;2023-10-19T00:05:40;9.30;99.90
45685;DHT22;46836;48.388;16.210;2023-10-19T00:08:08;9.30;99.90
45685;DHT22;46836;48.388;16.210;2023-10-19T00:10:45;9.30;99.90
45685;DHT22;46836;48.388;16.210;2023-10-19T00:13:15;9.30;99.90
45685;DHT22;46836;48.388;16.210;2023-10-19T00:15:43;9.30;99.90
45685;DHT22;46836;48.388;16.210;2023-10-19T00:18:16;9.30;99.90
45685;DHT22;46836;48.388;16.210;2023-10-19T00:20:44;9.30;99.90
45685;DHT22;46836;48.388;16.210;2023-10-19T00:23:12;9.30;99.90
45685;DHT22;46836;48.388;16.210;2023-10-19T00:25:48;9.30;99.90
45685;DHT22;46836;48.388;16.210;2023-10-19T00:28:18;9.30;99.90
45685;DHT22;46836;48.388;16.210;2023-10-19T00:30:46;9.30;99.90
45685;DHT22;46836;48.388;16.210;2023-10-19T00:33:15;9.30;99.90
45685;DHT22;46836;48.388;16.210;2023-10-19T00:35:44;9.30;99.90
45685;DHT22;46836;48.388;16.210;2023-10-19T00:38:14;9.30;99.90
45685;DHT22;46836;48.388;16.210;2023-10-19T00:40:54;9.30;99.90
45685;DHT22;46836;48.388;16.210;2023-10-19T00:43:42;9.30;99.90
45685;DHT22;46836;48.388;16.210;2023-10-19T00:46:13;9.30;99.90
45685;DHT22;46836;48.388;16.210;2023-10-19T00:48:56;9.30;99.90
45685;DHT22;46836;48.388;16.210;2023-10-19T00:51:37;9.20;99.90
45685;DHT22;46836;48.388;16.210;2023-10-19T00:54:17;9.20;99.90
45685;DHT22;46836;48.388;16.210;2023-10-19T00:56:54;9.20;99.90
45685;DHT22;46836;48.388;16.210;2023-10-19T00:59:31;9.20;99.90
45685;DHT22;46836;48.388;16.210;2023-10-19T01:02:02;9.20;99.90
45685;DHT22;46836;48.388;16.210;2023-10-19T01:04:49;9.20;99.90
45685;DHT22;46836;48.388;16.210;2023-10-19T01:07:23;9.20;99.90
45685;DHT22;46836;48.388;16.210;2023-10-19T01:09:58;9.20;99.90
45685;DHT22;46836;48.388;16.210;2023-10-19T01:12:27;9.20;99.90
45685;DHT22;46836;48.388;16.210;2023-10-19T01:15:09;9.20;99.90
45685;DHT22;46836;48.388;16.210;2023-10-19T01:17:44;9.20;99.90
45685;DHT22;46836;48.388;16.210;2023-10-19T01:20:15;9.20;99.90
45685;DHT22;46836;48.388;16.210;2023-10-19T01:22:58;9.20;99.90
45685;DHT22;46836;48.388;16.210;2023-10-19T01:28:31;9.20;99.90
45685;DHT22;46836;48.388;16.210;2023-10-19T01:31:12;9.20;99.90
45685;DHT22;46836;48.388;16.210;2023-10-19T01:33:50;9.20;99.90
45685;DHT22;46836;48.388;16.210;2023-10-19T01:36:17;9.30;99.90
45685;DHT22;46836;48.388;16.210;2023-10-19T01:38:54;9.30;99.90
45685;DHT22;46836;48.388;16.210;2023-10-19T01:41:25;9.30;99.90
45685;DHT22;46836;48.388;16.210;2023-10-19T01:43:54;9.30;99.90
45685;DHT22;46836;48.388;16.210;2023-10-19T01:46:23;9.30;99.90
45685;DHT22;46836;48.388;16.210;2023-10-19T01:48:58;9.40;99.90
45685;DHT22;46836;48.388;16.210;2023-10-19T01:51:27;9.30;99.90
45685;DHT22;46836;48.388;16.210;2023-10-19T01:53:56;9.40;99.90
45685;DHT22;46836;48.388;16.210;2023-10-19T01:56:24;9.30;99.90
45685;DHT22;46836;48.388;16.210;2023-10-19T01:58:52;9.30;99.90
45685;DHT22;46836;48.388;16.210;2023-10-19T02:01:21;9.30;99.90
45685;DHT22;46836;48.388;16.210;2023-10-19T02:04:01;9.30;99.90
45685;DHT22;46836;48.388;16.210;2023-10-19T02:06:30;9.30;99.90
45685;DHT22;46836;48.388;16.210;2023-10-19T02:09:08;9.20;99.90
45685;DHT22;46836;48.388;16.210;2023-10-19T02:11:56;9.20;99.90
45685;DHT22;46836;48.388;16.210;2023-10-19T02:14:27;9.20;99.90
45685;DHT22;46836;48.388;16.210;2023-10-19T02:17:00;9.20;99.90
45685;DHT22;46836;48.388;16.210;2023-10-19T02:19:29;9.20;99.90
45685;DHT22;46836;48.388;16.210;2023-10-19T02:21:59;9.20;99.90
45685;DHT22;46836;48.388;16.210;2023-10-19T02:24:30;9.20;99.90
45685;DHT22;46836;48.388;16.210;2023-10-19T02:26:59;9.20;99.90
45685;DHT22;46836;48.388;16.210;2023-10-19T02:29:28;9.20;99.90
45685;DHT22;46836;48.388;16.210;2023-10-19T02:31:55;9.10;99.90
45685;DHT22;46836;48.388;16.210;2023-10-19T02:34:24;9.10;99.90
45685;DHT22;46836;48.388;16.210;2023-10-19T02:36:51;9.20;99.90
45685;DHT22;46836;48.388;16.210;2023-10-19T02:39:18;9.20;99.90
45685;DHT22;46836;48.388;16.210;2023-10-19T02:41:47;9.20;99.90
45685;DHT22;46836;48.388;16.210;2023-10-19T02:44:18;9.20;99.90
45685;DHT22;46836;48.388;16.210;2023-10-19T02:46:47;9.20;99.90
45685;DHT22;46836;48.388;16.210;2023-10-19T02:49:15;9.20;99.90
45685;DHT22;46836;48.388;16.210;2023-10-19T02:51:53;9.20;99.90
45685;DHT22;46836;48.388;16.210;2023-10-19T02:54:23;9.20;99.90
45685;DHT22;46836;48.388;16.210;2023-10-19T02:56:53;9.20;99.90
45685;DHT22;46836;48.388;16.210;2023-10-19T02:59:25;9.20;99.90
45685;DHT22;46836;48.388;16.210;2023-10-19T03:01:58;9.20;99.90
45685;DHT22;46836;48.388;16.210;2023-10-19T03:04:34;9.20;99.90
45685;DHT22;46836;48.388;16.210;2023-10-19T03:07:05;9.20;99.90
45685;DHT22;46836;48.388;16.210;2023-10-19T03:09:33;9.20;99.90
45685;DHT22;46836;48.388;16.210;2023-10-19T03:12:04;9.20;99.90
45685;DHT22;46836;48.388;16.210;2023-10-19T03:14:36;9.20;99.90
45685;DHT22;46836;48.388;16.210;2023-10-19T03:17:04;9.20;99.90
45685;DHT22;46836;48.388;16.210;2023-10-19T03:19:35;9.20;99.90
45685;DHT22;46836;48.388;16.210;2023-10-19T03:22:02;9.30;99.90
45685;DHT22;46836;48.388;16.210;2023-10-19T03:24:33;9.20;99.90
45685;DHT22;46836;48.388;16.210;2023-10-19T03:27:12;9.20;99.90
45685;DHT22;46836;48.388;16.210;2023-10-19T03:29:43;9.20;99.90
45685;DHT22;46836;48.388;16.210;2023-10-19T03:32:15;9.20;99.90
45685;DHT22;46836;48.388;16.210;2023-10-19T03:34:48;9.20;99.90
45685;DHT22;46836;48.388;16.210;2023-10-19T03:37:17;9.20;99.90
45685;DHT22;46836;48.388;16.210;2023-10-19T03:39:48;9.20;99.90
45685;DHT22;46836;48.388;16.210;2023-10-19T03:42:16;9.20;99.90
45685;DHT22;46836;48.388;16.210;2023-10-19T03:44:43;9.20;99.90
45685;DHT22;46836;48.388;16.210;2023-10-19T03:47:18;9.20;99.90
45685;DHT22;46836;48.388;16.210;2023-10-19T03:49:52;9.20;99.90
45685;DHT22;46836;48.388;16.210;2023-10-19T03:52:20;9.30;99.90
45685;DHT22;46836;48.388;16.210;2023-10-19T03:54:48;9.30;99.90
45685;DHT22;46836;48.388;16.210;2023-10-19T03:57:17;9.30;99.90
45685;DHT22;46836;48.388;16.210;2023-10-19T03:59:57;9.30;99.90
45685;DHT22;46836;48.388;16.210;2023-10-19T04:02:28;9.30;99.90
45685;DHT22;46836;48.388;16.210;2023-10-19T04:04:57;9.40;99.90
45685;DHT22;46836;48.388;16.210;2023-10-19T04:07:25;9.40;99.90
45685;DHT22;46836;48.388;16.210;2023-10-19T04:09:56;9.40;99.90
45685;DHT22;46836;48.388;16.210;2023-10-19T04:12:38;9.50;99.90
45685;DHT22;46836;48.388;16.210;2023-10-19T04:15:11;9.50;99.90
45685;DHT22;46836;48.388;16.210;2023-10-19T04:17:45;9.50;99.90
45685;DHT22;46836;48.388;16.210;2023-10-19T04:20:17;9.60;99.90
45685;DHT22;46836;48.388;16.210;2023-10-19T04:22:50;9.60;99.90
45685;DHT22;46836;48.388;16.210;2023-10-19T04:25:18;9.60;99.90
45685;DHT22;46836;48.388;16.210;2023-10-19T04:27:47;9.70;99.90
45685;DHT22;46836;48.388;16.210;2023-10-19T04:30:16;9.70;99.90
45685;DHT22;46836;48.388;16.210;2023-10-19T04:32:46;9.70;99.90
45685;DHT22;46836;48.388;16.210;2023-10-19T04:35:13;9.80;99.90
45685;DHT22;46836;48.388;16.210;2023-10-19T04:37:42;9.80;99.90
45685;DHT22;46836;48.388;16.210;2023-10-19T04:40:10;9.80;99.90
45685;DHT22;46836;48.388;16.210;2023-10-19T04:42:38;9.80;99.90
45685;DHT22;46836;48.388;16.210;2023-10-19T04:45:06;9.90;99.90
45685;DHT22;46836;48.388;16.210;2023-10-19T04:47:33;9.90;99.90
45685;DHT22;46836;48.388;16.210;2023-10-19T04:50:04;9.90;99.90
45685;DHT22;46836;48.388;16.210;2023-10-19T04:52:33;9.90;99.90
45685;DHT22;46836;48.388;16.210;2023-10-19T04:55:01;10.00;99.90
45685;DHT22;46836;48.388;16.210;2023-10-19T04:57:28;10.00;99.90
45685;DHT22;46836;48.388;16.210;2023-10-19T04:59:56;10.00;99.90
45685;DHT22;46836;48.388;16.210;2023-10-19T05:02:24;10.00;99.90
45685;DHT22;46836;48.388;16.210;2023-10-19T05:04:51;10.00;99.90
45685;DHT22;46836;48.388;16.210;2023-10-19T05:07:18;10.10;99.90
45685;DHT22;46836;48.388;16.210;2023-10-19T05:09:46;10.10;99.90
45685;DHT22;46836;48.388;16.210;2023-10-19T05:12:14;10.10;99.90
45685;DHT22;46836;48.388;16.210;2023-10-19T05:14:42;10.10;99.90
45685;DHT22;46836;48.388;16.210;2023-10-19T05:17:10;10.10;99.90
45685;DHT22;46836;48.388;16.210;2023-10-19T05:19:39;10.10;99.90
45685;DHT22;46836;48.388;16.210;2023-10-19T05:22:08;10.10;99.90
45685;DHT22;46836;48.388;16.210;2023-10-19T05:24:36;10.20;99.90
45685;DHT22;46836;48.388;16.210;2023-10-19T05:27:03;10.20;99.90
45685;DHT22;46836;48.388;16.210;2023-10-19T05:29:31;10.20;99.90
45685;DHT22;46836;48.388;16.210;2023-10-19T05:32:03;10.20;99.90
45685;DHT22;46836;48.388;16.210;2023-10-19T05:34:31;10.20;99.90
45685;DHT22;46836;48.388;16.210;2023-10-19T05:37:00;10.30;99.90
45685;DHT22;46836;48.388;16.210;2023-10-19T05:39:29;10.30;99.90
45685;DHT22;46836;48.388;16.210;2023-10-19T05:41:58;10.30;99.90
45685;DHT22;46836;48.388;16.210;2023-10-19T05:44:29;10.40;99.90
45685;DHT22;46836;48.388;16.210;2023-10-19T05:46:58;10.40;99.90
45685;DHT22;46836;48.388;16.210;2023-10-19T05:49:27;10.50;99.90
45685;DHT22;46836;48.388;16.210;2023-10-19T05:51:56;10.50;99.90
45685;DHT22;46836;48.388;16.210;2023-10-19T05:54:23;10.50;99.90
45685;DHT22;46836;48.388;16.210;2023-10-19T05:56:51;10.60;99.90
45685;DHT22;46836;48.388;16.210;2023-10-19T05:59:20;10.70;99.90
45685;DHT22;46836;48.388;16.210;2023-10-19T06:01:47;10.60;99.90
45685;DHT22;46836;48.388;16.210;2023-10-19T06:04:15;10.70;99.90
45685;DHT22;46836;48.388;16.210;2023-10-19T06:06:57;10.80;99.90
45685;DHT22;46836;48.388;16.210;2023-10-19T06:09:24;10.90;99.90
45685;DHT22;46836;48.388;16.210;2023-10-19T06:11:56;10.90;99.90
45685;DHT22;46836;48.388;16.210;2023-10-19T06:14:23;11.00;99.90
45685;DHT22;46836;48.388;16.210;2023-10-19T06:16:51;11.00;99.90
45685;DHT22;46836;48.388;16.210;2023-10-19T06:19:19;11.10;99.90
45685;DHT22;46836;48.388;16.210;2023-10-19T06:21:47;11.20;99.90
45685;DHT22;46836;48.388;16.210;2023-10-19T06:24:14;11.30;99.90
45685;DHT22;46836;48.388;16.210;2023-10-19T06:26:42;11.40;99.90
45685;DHT22;46836;48.388;16.210;2023-10-19T06:29:10;11.40;99.90
45685;DHT22;46836;48.388;16.210;2023-10-19T06:31:37;11.60;99.90
45685;DHT22;46836;48.388;16.210;2023-10-19T06:34:05;11.80;99.90
45685;DHT22;46836;48.388;16.210;2023-10-19T06:36:32;12.00;99.90
45685;DHT22;46836;48.388;16.210;2023-10-19T06:38:59;11.90;99.90
45685;DHT22;46836;48.388;16.210;2023-10-19T06:41:28;12.00;99.90
45685;DHT22;46836;48.388;16.210;2023-10-19T06:43:55;12.10;99.90
45685;DHT22;46836;48.388;16.210;2023-10-19T06:46:22;12.20;99.90
45685;DHT22;46836;48.388;16.210;2023-10-19T06:48:49;12.30;99.90
45685;DHT22;46836;48.388;16.210;2023-10-19T06:51:20;12.40;99.90
45685;DHT22;46836;48.388;16.210;2023-10-19T06:53:47;12.40;99.90
45685;DHT22;46836;48.388;16.210;2023-10-19T06:56:14;12.50;99.90
45685;DHT22;46836;48.388;16.210;2023-10-19T06:58:43;12.50;99.90
45685;DHT22;46836;48.388;16.210;2023-10-19T07:01:10;12.50;99.90
45685;DHT22;46836;48.388;16.210;2023-10-19T07:03:38;12.40;99.90
45685;DHT22;46836;48.388;16.210;2023-10-19T07:06:05;12.40;99.90
45685;DHT22;46836;48.388;16.210;2023-10-19T07:08:39;12.40;99.90
45685;DHT22;46836;48.388;16.210;2023-10-19T07:11:06;12.40;99.90
45685;DHT22;46836;48.388;16.210;2023-10-19T07:13:34;12.50;99.90
45685;DHT22;46836;48.388;16.210;2023-10-19T07:16:01;12.50;99.90
45685;DHT22;46836;48.388;16.210;2023-10-19T07:18:30;12.60;99.90
45685;DHT22;46836;48.388;16.210;2023-10-19T07:20:57;12.60;99.90
45685;DHT22;46836;48.388;16.210;2023-10-19T07:23:30;12.60;99.90
45685;DHT22;46836;48.388;16.210;2023-10-19T07:25:58;12.60;99.90
45685;DHT22;46836;48.388;16.210;2023-10-19T07:28:28;12.60;99.90
45685;DHT22;46836;48.388;16.210;2023-10-19T07:30:57;12.60;99.90
45685;DHT22;46836;48.388;16.210;2023-10-19T07:33:26;12.60;99.90
45685;DHT22;46836;48.388;16.210;2023-10-19T07:35:55;12.70;99.90
45685;DHT22;46836;48.388;16.210;2023-10-19T07:38:23;12.70;99.90
45685;DHT22;46836;48.388;16.210;2023-10-19T07:40:50;12.70;99.90
45685;DHT22;46836;48.388;16.210;2023-10-19T07:43:21;12.70;99.90
45685;DHT22;46836;48.388;16.210;2023-10-19T07:45:49;12.70;99.90
45685;DHT22;46836;48.388;16.210;2023-10-19T07:48:17;12.80;99.90
45685;DHT22;46836;48.388;16.210;2023-10-19T07:50:45;12.70;99.90
45685;DHT22;46836;48.388;16.210;2023-10-19T07:53:12;12.70;99.90
45685;DHT22;46836;48.388;16.210;2023-10-19T07:55:39;12.70;99.90
45685;DHT22;46836;48.388;16.210;2023-10-19T07:58:07;12.60;99.90
45685;DHT22;46836;48.388;16.210;2023-10-19T08:00:34;12.60;99.90
45685;DHT22;46836;48.388;16.210;2023-10-19T08:03:05;12.60;99.90
45685;DHT22;46836;48.388;16.210;2023-10-19T08:05:33;12.60;99.90
45685;DHT22;46836;48.388;16.210;2023-10-19T08:08:01;12.70;99.90
45685;DHT22;46836;48.388;16.210;2023-10-19T08:10:32;12.70;99.90
45685;DHT22;46836;48.388;16.210;2023-10-19T08:13:01;12.70;99.90
45685;DHT22;46836;48.388;16.210;2023-10-19T08:15:29;12.70;99.90
45685;DHT22;46836;48.388;16.210;2023-10-19T08:17:58;12.70;99.90
45685;DHT22;46836;48.388;16.210;2023-10-19T08:20:25;12.70;99.90
45685;DHT22;46836;48.388;16.210;2023-10-19T08:23:00;12.80;99.90
45685;DHT22;46836;48.388;16.210;2023-10-19T08:25:29;12.80;99.90
45685;DHT22;46836;48.388;16.210;2023-10-19T08:28:17;12.90;99.90
45685;DHT22;46836;48.388;16.210;2023-10-19T08:30:44;12.90;99.90
45685;DHT22;46836;48.388;16.210;2023-10-19T08:33:25;13.00;99.90
45685;DHT22;46836;48.388;16.210;2023-10-19T08:35:53;13.00;99.90
45685;DHT22;46836;48.388;16.210;2023-10-19T08:38:23;13.00;99.90
45685;DHT22;46836;48.388;16.210;2023-10-19T08:40:50;13.00;99.90
45685;DHT22;46836;48.388;16.210;2023-10-19T08:43:18;13.00;99.90
45685;DHT22;46836;48.388;16.210;2023-10-19T08:45:46;13.00;99.90
45685;DHT22;46836;48.388;16.210;2023-10-19T08:48:13;13.10;99.90
45685;DHT22;46836;48.388;16.210;2023-10-19T08:50:41;13.10;99.90
45685;DHT22;46836;48.388;16.210;2023-10-19T08:53:09;13.20;99.90
45685;DHT22;46836;48.388;16.210;2023-10-19T08:55:37;13.30;99.90
45685;DHT22;46836;48.388;16.210;2023-10-19T08:58:16;13.30;99.90
45685;DHT22;46836;48.388;16.210;2023-10-19T09:00:49;13.30;99.90
45685;DHT22;46836;48.388;16.210;2023-10-19T09:03:24;13.30;99.90
45685;DHT22;46836;48.388;16.210;2023-10-19T09:05:54;13.40;99.90
45685;DHT22;46836;48.388;16.210;2023-10-19T09:08:21;13.50;99.90
45685;DHT22;46836;48.388;16.210;2023-10-19T09:10:50;13.50;99.90
45685;DHT22;46836;48.388;16.210;2023-10-19T09:13:23;13.40;99.90
45685;DHT22;46836;48.388;16.210;2023-10-19T09:15:52;13.40;99.90
45685;DHT22;46836;48.388;16.210;2023-10-19T09:18:25;13.50;99.90
45685;DHT22;46836;48.388;16.210;2023-10-19T09:20:56;13.60;99.90
45685;DHT22;46836;48.388;16.210;2023-10-19T09:23:30;13.60;99.90
45685;DHT22;46836;48.388;16.210;2023-10-19T09:26:00;13.60;99.90
45685;DHT22;46836;48.388;16.210;2023-10-19T09:28:37;13.60;99.90
45685;DHT22;46836;48.388;16.210;2023-10-19T09:31:06;13.60;99.90
45685;DHT22;46836;48.388;16.210;2023-10-19T09:33:40;13.70;99.90
45685;DHT22;46836;48.388;16.210;2023-10-19T09:36:10;13.60;99.90
45685;DHT22;46836;48.388;16.210;2023-10-19T09:38:50;13.60;99.90
45685;DHT22;46836;48.388;16.210;2023-10-19T09:41:22;13.60;99.90
45685;DHT22;46836;48.388;16.210;2023-10-19T09:43:50;13.50;99.90
45685;DHT22;46836;48.388;16.210;2023-10-19T09:46:29;13.60;99.90
45685;DHT22;46836;48.388;16.210;2023-10-19T09:48:59;13.60;99.90
45685;DHT22;46836;48.388;16.210;2023-10-19T09:51:28;13.60;99.90
45685;DHT22;46836;48.388;16.210;2023-10-19T09:56:55;13.60;99.90
45685;DHT22;46836;48.388;16.210;2023-10-19T09:59:32;13.70;99.90
45685;DHT22;46836;48.388;16.210;2023-10-19T10:02:08;13.70;99.90
45685;DHT22;46836;48.388;16.210;2023-10-19T10:04:39;13.80;99.90
45685;DHT22;46836;48.388;16.210;2023-10-19T10:07:08;13.90;99.90
45685;DHT22;46836;48.388;16.210;2023-10-19T10:09:40;13.90;99.90
45685;DHT22;46836;48.388;16.210;2023-10-19T10:12:25;14.00;99.90
45685;DHT22;46836;48.388;16.210;2023-10-19T10:15:04;14.00;99.90
45685;DHT22;46836;48.388;16.210;2023-10-19T10:17:39;14.10;99.90
45685;DHT22;46836;48.388;16.210;2023-10-19T10:25:47;14.10;99.90
45685;DHT22;46836;48.388;16.210;2023-10-19T10:28:21;14.10;99.90
45685;DHT22;46836;48.388;16.210;2023-10-19T10:33:53;14.10;99.90
45685;DHT22;46836;48.388;16.210;2023-10-19T10:36:23;14.10;99.90
45685;DHT22;46836;48.388;16.210;2023-10-19T10:39:01;14.10;99.90
45685;DHT22;46836;48.388;16.210;2023-10-19T10:41:32;14.20;99.90
45685;DHT22;46836;48.388;16.210;2023-10-19T10:43:59;14.20;99.90
45685;DHT22;46836;48.388;16.210;2023-10-19T10:46:27;14.20;99.90
45685;DHT22;46836;48.388;16.210;2023-10-19T10:48:56;14.30;99.90
45685;DHT22;46836;48.388;16.210;2023-10-19T10:51:27;14.30;99.90
45685;DHT22;46836;48.388;16.210;2023-10-19T10:53:58;14.40;99.90
45685;DHT22;46836;48.388;16.210;2023-10-19T10:56:25;14.40;99.90
45685;DHT22;46836;48.388;16.210;2023-10-19T10:58:53;14.40;99.90
45685;DHT22;46836;48.388;16.210;2023-10-19T11:01:29;14.40;99.90
45685;DHT22;46836;48.388;16.210;2023-10-19T11:04:10;14.40;99.90
45685;DHT22;46836;48.388;16.210;2023-10-19T11:06:52;14.40;99.90
45685;DHT22;46836;48.388;16.210;2023-10-19T11:09:22;14.50;99.90
45685;DHT22;46836;48.388;16.210;2023-10-19T11:11:50;14.60;99.90
45685;DHT22;46836;48.388;16.210;2023-10-19T11:14:19;14.60;99.90
45685;DHT22;46836;48.388;16.210;2023-10-19T11:16:48;14.70;99.90
45685;DHT22;46836;48.388;16.210;2023-10-19T11:19:16;14.80;99.90
45685;DHT22;46836;48.388;16.210;2023-10-19T11:21:53;15.00;99.90
45685;DHT22;46836;48.388;16.210;2023-10-19T11:24:26;15.10;99.90
45685;DHT22;46836;48.388;16.210;2023-10-19T11:26:55;15.20;99.90
45685;DHT22;46836;48.388;16.210;2023-10-19T11:29:22;15.40;99.90
45685;DHT22;46836;48.388;16.210;2023-10-19T11:31:58;15.50;99.90
45685;DHT22;46836;48.388;16.210;2023-10-19T11:34:28;15.60;99.90
45685;DHT22;46836;48.388;16.210;2023-10-19T11:36:57;15.70;99.90
45685;DHT22;46836;48.388;16.210;2023-10-19T11:39:27;15.80;99.90
45685;DHT22;46836;48.388;16.210;2023-10-19T11:41:55;15.90;99.90
45685;DHT22;46836;48.388;16.210;2023-10-19T11:44:22;16.10;99.90
45685;DHT22;46836;48.388;16.210;2023-10-19T11:46:50;16.20;99.90
45685;DHT22;46836;48.388;16.210;2023-10-19T11:49:17;16.30;99.90
45685;DHT22;46836;48.388;16.210;2023-10-19T11:51:44;16.30;99.90
45685;DHT22;46836;48.388;16.210;2023-10-19T11:54:11;16.30;99.90
45685;DHT22;46836;48.388;16.210;2023-10-19T11:56:39;16.20;99.90
45685;DHT22;46836;48.388;16.210;2023-10-19T11:59:06;16.30;99.90
45685;DHT22;46836;48.388;16.210;2023-10-19T12:01:34;16.20;99.90
45685;DHT22;46836;48.388;16.210;2023-10-19T12:04:02;16.20;99.90
45685;DHT22;46836;48.388;16.210;2023-10-19T12:06:29;16.20;99.90
45685;DHT22;46836;48.388;16.210;2023-10-19T12:08:57;16.20;99.90
45685;DHT22;46836;48.388;16.210;2023-10-19T12:11:26;16.20;99.90
45685;DHT22;46836;48.388;16.210;2023-10-19T12:13:53;16.20;99.90
45685;DHT22;46836;48.388;16.210;2023-10-19T12:16:21;16.30;99.90
45685;DHT22;46836;48.388;16.210;2023-10-19T12:18:51;16.20;99.90
45685;DHT22;46836;48.388;16.210;2023-10-19T12:21:18;16.20;99.90
45685;DHT22;46836;48.388;16.210;2023-10-19T12:23:49;16.40;99.90
45685;DHT22;46836;48.388;16.210;2023-10-19T12:26:22;16.50;99.90
45685;DHT22;46836;48.388;16.210;2023-10-19T12:28:50;16.50;99.90
45685;DHT22;46836;48.388;16.210;2023-10-19T12:31:17;16.60;99.90
45685;DHT22;46836;48.388;16.210;2023-10-19T12:33:49;16.70;99.90
45685;DHT22;46836;48.388;16.210;2023-10-19T12:36:16;16.80;99.90
45685;DHT22;46836;48.388;16.210;2023-10-19T12:38:55;16.90;99.90
45685;DHT22;46836;48.388;16.210;2023-10-19T12:41:24;17.00;99.90
45685;DHT22;46836;48.388;16.210;2023-10-19T12:43:52;17.10;99.90
45685;DHT22;46836;48.388;16.210;2023-10-19T12:46:20;17.30;99.90
45685;DHT22;46836;48.388;16.210;2023-10-19T12:48:52;17.40;99.90
45685;DHT22;46836;48.388;16.210;2023-10-19T12:51:19;17.50;99.90
45685;DHT22;46836;48.388;16.210;2023-10-19T12:53:53;17.50;99.90
45685;DHT22;46836;48.388;16.210;2023-10-19T12:56:21;17.50;99.90
45685;DHT22;46836;48.388;16.210;2023-10-19T12:58:51;17.50;99.90
45685;DHT22;46836;48.388;16.210;2023-10-19T13:01:19;17.40;99.90
45685;DHT22;46836;48.388;16.210;2023-10-19T13:03:47;17.30;99.90
45685;DHT22;46836;48.388;16.210;2023-10-19T13:06:17;17.30;99.90
45685;DHT22;46836;48.388;16.210;2023-10-19T13:08:44;17.30;99.90
45685;DHT22;46836;48.388;16.210;2023-10-19T13:11:11;17.40;99.90
45685;DHT22;46836;48.388;16.210;2023-10-19T13:13:44;17.50;99.90
45685;DHT22;46836;48.388;16.210;2023-10-19T13:16:13;17.60;99.90
45685;DHT22;46836;48.388;16.210;2023-10-19T13:18:41;17.70;99.90
45685;DHT22;46836;48.388;16.210;2023-10-19T13:21:08;17.60;99.90
45685;DHT22;46836;48.388;16.210;2023-10-19T13:23:44;17.70;99.90
45685;DHT22;46836;48.388;16.210;2023-10-19T13:26:12;17.70;99.90
45685;DHT22;46836;48.388;16.210;2023-10-19T13:28:43;17.70;99.90
45685;DHT22;46836;48.388;16.210;2023-10-19T13:31:11;17.70;99.90
45685;DHT22;46836;48.388;16.210;2023-10-19T13:33:41;17.80;99.90
45685;DHT22;46836;48.388;16.210;2023-10-19T13:36:08;17.90;99.90
45685;DHT22;46836;48.388;16.210;2023-10-19T13:38:35;18.00;99.90
45685;DHT22;46836;48.388;16.210;2023-10-19T13:41:04;18.10;99.90
45685;DHT22;46836;48.388;16.210;2023-10-19T13:43:34;18.10;99.90
45685;DHT22;46836;48.388;16.210;2023-10-19T13:46:05;18.20;99.90
45685;DHT22;46836;48.388;16.210;2023-10-19T13:48:33;18.10;99.90
45685;DHT22;46836;48.388;16.210;2023-10-19T13:51:00;18.10;99.90
45685;DHT22;46836;48.388;16.210;2023-10-19T13:53:27;18.10;99.90
45685;DHT22;46836;48.388;16.210;2023-10-19T13:55:54;18.00;99.90
45685;DHT22;46836;48.388;16.210;2023-10-19T13:58:21;17.90;99.90
45685;DHT22;46836;48.388;16.210;2023-10-19T14:00:50;17.90;99.90
45685;DHT22;46836;48.388;16.210;2023-10-19T14:03:17;17.90;99.90
45685;DHT22;46836;48.388;16.210;2023-10-19T14:05:45;17.90;99.90
45685;DHT22;46836;48.388;16.210;2023-10-19T14:08:17;17.80;99.90
45685;DHT22;46836;48.388;16.210;2023-10-19T14:10:44;17.70;99.90
45685;DHT22;46836;48.388;16.210;2023-10-19T14:13:12;17.50;99.90
45685;DHT22;46836;48.388;16.210;2023-10-19T14:15:40;17.40;99.90
45685;DHT22;46836;48.388;16.210;2023-10-19T14:18:07;17.40;99.90
45685;DHT22;46836;48.388;16.210;2023-10-19T14:20:35;17.40;99.90
45685;DHT22;46836;48.388;16.210;2023-10-19T14:23:06;17.50;99.90
45685;DHT22;46836;48.388;16.210;2023-10-19T14:25:37;17.50;99.90
45685;DHT22;46836;48.388;16.210;2023-10-19T14:28:06;17.60;99.90
45685;DHT22;46836;48.388;16.210;2023-10-19T14:30:34;17.60;99.90
45685;DHT22;46836;48.388;16.210;2023-10-19T14:33:02;17.60;99.90
45685;DHT22;46836;48.388;16.210;2023-10-19T14:35:29;17.60;99.90
45685;DHT22;46836;48.388;16.210;2023-10-19T14:37:56;17.70;99.90
45685;DHT22;46836;48.388;16.210;2023-10-19T14:40:27;17.70;99.90
45685;DHT22;46836;48.388;16.210;2023-10-19T14:42:56;17.80;99.90
45685;DHT22;46836;48.388;16.210;2023-10-19T14:45:25;17.90;99.90
45685;DHT22;46836;48.388;16.210;2023-10-19T14:47:54;17.90;99.90
45685;DHT22;46836;48.388;16.210;2023-10-19T14:50:22;17.90;99.90
45685;DHT22;46836;48.388;16.210;2023-10-19T14:52:51;17.80;99.90
45685;DHT22;46836;48.388;16.210;2023-10-19T14:55:19;17.80;99.90
45685;DHT22;46836;48.388;16.210;2023-10-19T14:57:49;17.70;99.90
45685;DHT22;46836;48.388;16.210;2023-10-19T15:00:18;17.60;99.90
45685;DHT22;46836;48.388;16.210;2023-10-19T15:02:50;17.50;99.90
45685;DHT22;46836;48.388;16.210;2023-10-19T15:05:18;17.40;99.90
45685;DHT22;46836;48.388;16.210;2023-10-19T15:07:49;17.30;99.90
45685;DHT22;46836;48.388;16.210;2023-10-19T15:10:27;17.20;99.90
45685;DHT22;46836;48.388;16.210;2023-10-19T15:12:59;17.10;99.90
45685;DHT22;46836;48.388;16.210;2023-10-19T15:15:27;17.10;99.90
45685;DHT22;46836;48.388;16.210;2023-10-19T15:17:55;16.90;99.90
45685;DHT22;46836;48.388;16.210;2023-10-19T15:20:28;16.90;99.90
45685;DHT22;46836;48.388;16.210;2023-10-19T15:22:56;16.80;99.90
45685;DHT22;46836;48.388;16.210;2023-10-19T15:25:24;16.80;99.90
45685;DHT22;46836;48.388;16.210;2023-10-19T15:27:53;16.70;99.90
45685;DHT22;46836;48.388;16.210;2023-10-19T15:30:22;16.60;99.90
45685;DHT22;46836;48.388;16.210;2023-10-19T15:32:52;16.60;99.90
45685;DHT22;46836;48.388;16.210;2023-10-19T15:35:21;16.50;99.90
45685;DHT22;46836;48.388;16.210;2023-10-19T15:37:52;16.40;99.90
45685;DHT22;46836;48.388;16.210;2023-10-19T15:40:24;16.30;99.90
45685;DHT22;46836;48.388;16.210;2023-10-19T15:42:53;16.30;99.90
45685;DHT22;46836;48.388;16.210;2023-10-19T15:45:21;16.20;99.90
45685;DHT22;46836;48.388;16.210;2023-10-19T15:47:53;16.20;99.90
45685;DHT22;46836;48.388;16.210;2023-10-19T15:50:27;16.20;99.90
45685;DHT22;46836;48.388;16.210;2023-10-19T15:52:55;16.30;99.90